createdAt,value
2023-04-02T00:01:02.910Z,98561.00
2023-04-02T00:03:45.415Z,98555.41
2023-04-02T00:06:33.220Z,98561.94
2023-04-02T00:09:18.273Z,98570.47
2023-04-02T00:11:51.053Z,98570.00
2023-04-02T00:14:34.130Z,98565.88
2023-04-02T00:17:06.105Z,98569.13
2023-04-02T00:20:02.744Z,98573.38
2023-04-02T00:22:32.776Z,98574.94
2023-04-02T00:25:13.706Z,98578.81
2023-04-02T00:27:43.298Z,98580.84
2023-04-02T00:30:13.404Z,98582.78
2023-04-02T00:32:42.811Z,98589.59
2023-04-02T00:35:26.831Z,98582.78
2023-04-02T00:37:55.710Z,98595.94
2023-04-02T00:40:27.135Z,98584.13
2023-04-02T00:42:59.752Z,98586.84
2023-04-02T00:45:30.191Z,98591.81
2023-04-02T00:48:01.199Z,98591.88
2023-04-02T00:50:36.628Z,98597.78
2023-04-02T00:53:29.060Z,98591.53
2023-04-02T00:55:58.950Z,98588.25
2023-04-02T00:58:32.151Z,98586.84
2023-04-02T01:01:01.888Z,98598.09
2023-04-02T01:03:35.177Z,98592.75
2023-04-02T01:06:03.957Z,98598.56
2023-04-02T01:08:57.107Z,98603.88
2023-04-02T01:11:45.965Z,98599.19
2023-04-02T01:14:39.933Z,98607.59
2023-04-02T01:17:49.248Z,98601.91
2023-04-02T01:20:29.481Z,98611.63
2023-04-02T01:23:13.703Z,98614.94
2023-04-02T01:26:24.922Z,98618.75
2023-04-02T01:28:52.027Z,98621.13
2023-04-02T01:31:19.732Z,98610.78
2023-04-02T01:33:48.448Z,98618.66
2023-04-02T01:36:26.475Z,98620.75
2023-04-02T01:39:20.944Z,98618.41
2023-04-02T01:41:57.274Z,98623.25
2023-04-02T01:44:55.001Z,98626.06
2023-04-02T01:47:29.123Z,98623.94
2023-04-02T01:50:13.292Z,98626.22
2023-04-02T01:52:45.105Z,98633.44
2023-04-02T01:55:18.226Z,98635.94
2023-04-02T01:57:51.514Z,98639.56
2023-04-02T02:00:28.231Z,98640.78
2023-04-02T02:02:55.655Z,98648.22
2023-04-02T02:05:24.224Z,98654.06
2023-04-02T02:07:53.756Z,98657.53
2023-04-02T02:10:30.385Z,98660.16
2023-04-02T02:13:00.588Z,98662.03
2023-04-02T02:15:29.010Z,98663.25
2023-04-02T02:18:04.679Z,98668.06
2023-04-02T02:20:34.814Z,98663.31
2023-04-02T02:23:04.598Z,98668.06
2023-04-02T02:25:38.189Z,98668.06
2023-04-02T02:28:24.890Z,98671.22
2023-04-02T02:31:07.969Z,98672.41
2023-04-02T02:33:42.041Z,98678.84
2023-04-02T02:36:13.748Z,98683.47
2023-04-02T02:38:55.094Z,98687.88
2023-04-02T02:41:36.449Z,98686.72
2023-04-02T02:44:09.775Z,98688.44
2023-04-02T02:46:46.304Z,98688.31
2023-04-02T02:49:18.299Z,98690.28
2023-04-02T02:51:54.385Z,98697.75
2023-04-02T02:54:22.848Z,98701.34
2023-04-02T02:57:04.152Z,98704.78
2023-04-02T02:59:33.096Z,98714.75
2023-04-02T03:02:02.964Z,98721.91
2023-04-02T03:04:35.991Z,98719.28
2023-04-02T03:07:09.365Z,98728.16
2023-04-02T03:09:45.970Z,98731.44
2023-04-02T03:12:37.685Z,98738.94
2023-04-02T03:15:19.543Z,98745.28
2023-04-02T03:18:00.337Z,98743.69
2023-04-02T03:20:58.390Z,98751.72
2023-04-02T03:23:37.932Z,98753.06
2023-04-02T03:26:11.039Z,98756.19
2023-04-02T03:28:50.421Z,98766.50
2023-04-02T03:31:31.078Z,98772.19
2023-04-02T03:34:21.779Z,98775.69
2023-04-02T03:37:08.166Z,98778.13
2023-04-02T03:39:42.980Z,98786.91
2023-04-02T03:42:13.343Z,98782.53
2023-04-02T03:45:03.330Z,98799.34
2023-04-02T03:47:59.522Z,98806.66
2023-04-02T03:50:34.087Z,98805.25
2023-04-02T03:53:05.227Z,98814.19
2023-04-02T03:55:37.429Z,98822.19
2023-04-02T03:58:29.827Z,98828.47
2023-04-02T04:01:09.254Z,98835.63
2023-04-02T04:03:50.152Z,98837.47
2023-04-02T04:06:24.513Z,98849.97
2023-04-02T04:09:00.048Z,98858.81
2023-04-02T04:11:37.004Z,98866.00
2023-04-02T04:14:13.725Z,98863.38
2023-04-02T04:17:00.337Z,98872.25
2023-04-02T04:19:40.905Z,98874.97
2023-04-02T04:22:20.343Z,98878.88
2023-04-02T04:24:48.554Z,98886.03
2023-04-02T04:27:33.967Z,98892.38
2023-04-02T04:30:06.651Z,98898.63
2023-04-02T04:32:39.500Z,98895.28
2023-04-02T04:35:15.703Z,98910.25
2023-04-02T04:37:50.194Z,98908.75
2023-04-02T04:40:29.128Z,98914.00
2023-04-02T04:43:02.337Z,98917.41
2023-04-02T04:45:51.025Z,98927.03
2023-04-02T04:48:53.602Z,98926.22
2023-04-02T04:51:47.455Z,98933.97
2023-04-02T04:54:16.576Z,98945.31
2023-04-02T04:56:56.583Z,98941.91
2023-04-02T04:59:51.002Z,98953.16
2023-04-02T05:02:27.129Z,98961.00
2023-04-02T05:04:54.691Z,98963.78
2023-04-02T05:07:47.477Z,98973.34
2023-04-02T05:10:39.251Z,98970.94
2023-04-02T05:13:22.998Z,98980.75
2023-04-02T05:16:01.993Z,98987.00
2023-04-02T05:18:33.061Z,98983.66
2023-04-02T05:21:25.269Z,99001.34
2023-04-02T05:24:00.370Z,99007.56
2023-04-02T05:26:42.472Z,99011.13
2023-04-02T05:29:13.731Z,99009.59
2023-04-02T05:31:50.607Z,99021.06
2023-04-02T05:34:26.581Z,99029.16
2023-04-02T05:36:56.027Z,99040.66
2023-04-02T05:39:25.633Z,99036.53
2023-04-02T05:42:05.532Z,99047.91
2023-04-02T05:44:39.058Z,99044.66
2023-04-02T05:47:12.615Z,99057.69
2023-04-02T05:49:40.112Z,99061.09
2023-04-02T05:52:13.271Z,99059.41
2023-04-02T05:54:55.297Z,99063.66
2023-04-02T05:57:44.590Z,99079.31
2023-04-02T06:00:30.146Z,99082.03
2023-04-02T06:03:16.468Z,99069.69
2023-04-02T06:05:46.901Z,99088.06
2023-04-02T06:08:24.210Z,99095.00
2023-04-02T06:11:01.716Z,99100.22
2023-04-02T06:13:29.471Z,99101.13
2023-04-02T06:15:56.876Z,99103.59
2023-04-02T06:18:27.619Z,99102.41
2023-04-02T06:20:56.205Z,99112.66
2023-04-02T06:23:40.353Z,99128.97
2023-04-02T06:26:33.439Z,99129.28
2023-04-02T06:29:09.241Z,99141.81
2023-04-02T06:31:39.426Z,99139.38
2023-04-02T06:34:23.110Z,99152.72
2023-04-02T06:36:54.934Z,99157.75
2023-04-02T06:39:24.648Z,99164.88
2023-04-02T06:42:17.293Z,99165.00
2023-04-02T06:44:44.915Z,99176.38
2023-04-02T06:47:39.927Z,99179.88
2023-04-02T06:50:17.152Z,99185.25
2023-04-02T06:52:51.307Z,99185.34
2023-04-02T06:55:22.021Z,99198.47
2023-04-02T06:57:49.579Z,99195.81
2023-04-02T07:00:34.965Z,99207.00
2023-04-02T07:03:06.907Z,99196.56
2023-04-02T07:05:34.517Z,99206.16
2023-04-02T07:08:02.099Z,99213.03
2023-04-02T07:11:02.334Z,99218.31
2023-04-02T07:13:29.740Z,99219.22
2023-04-02T07:15:58.303Z,99234.06
2023-04-02T07:18:34.454Z,99223.59
2023-04-02T07:21:02.017Z,99227.22
2023-04-02T07:23:30.577Z,99225.50
2023-04-02T07:25:58.695Z,99229.00
2023-04-02T07:28:26.816Z,99226.34
2023-04-02T07:31:00.114Z,99234.06
2023-04-02T07:33:30.637Z,99247.91
2023-04-02T07:35:59.047Z,99239.28
2023-04-02T07:38:26.882Z,99240.19
2023-04-02T07:40:54.590Z,99240.84
2023-04-02T07:43:23.512Z,99253.91
2023-04-02T07:45:51.983Z,99253.88
2023-04-02T07:48:26.698Z,99254.78
2023-04-02T07:50:53.843Z,99274.69
2023-04-02T07:53:34.721Z,99277.16
2023-04-02T07:56:04.085Z,99273.22
2023-04-02T07:58:32.902Z,99273.50
2023-04-02T08:01:02.043Z,99284.88
2023-04-02T08:03:29.868Z,99284.13
2023-04-02T08:05:59.008Z,99285.88
2023-04-02T08:08:27.467Z,99294.59
2023-04-02T08:10:55.857Z,99301.53
2023-04-02T08:13:23.014Z,99304.03
2023-04-02T08:15:50.700Z,99307.47
2023-04-02T08:18:17.852Z,99315.31
2023-04-02T08:20:45.394Z,99318.91
2023-04-02T08:23:18.298Z,99319.81
2023-04-02T08:25:46.532Z,99329.41
2023-04-02T08:28:21.686Z,99332.88
2023-04-02T08:30:51.670Z,99338.88
2023-04-02T08:33:20.061Z,99336.16
2023-04-02T08:35:48.966Z,99334.50
2023-04-02T08:38:18.896Z,99331.84
2023-04-02T08:40:50.769Z,99338.66
2023-04-02T08:44:01.151Z,99345.56
2023-04-02T08:46:35.313Z,99352.47
2023-04-02T08:49:15.194Z,99345.47
2023-04-02T08:51:46.005Z,99354.91
2023-04-02T08:54:24.670Z,99361.91
2023-04-02T08:57:22.599Z,99361.72
2023-04-02T08:59:57.489Z,99355.47
2023-04-02T09:03:02.872Z,99357.91
2023-04-02T09:05:34.786Z,99373.03
2023-04-02T09:08:14.284Z,99364.28
2023-04-02T09:11:00.089Z,99371.19
2023-04-02T09:13:30.445Z,99376.66
2023-04-02T09:16:22.796Z,99388.81
2023-04-02T09:18:53.115Z,99395.88
2023-04-02T09:21:37.628Z,99391.53
2023-04-02T09:24:05.505Z,99397.63
2023-04-02T09:26:34.653Z,99400.19
2023-04-02T09:29:16.121Z,99397.47
2023-04-02T09:31:55.910Z,99397.50
2023-04-02T09:34:37.348Z,99404.50
2023-04-02T09:37:31.170Z,99407.09
2023-04-02T09:40:17.262Z,99426.16
2023-04-02T09:42:44.866Z,99425.31
2023-04-02T09:45:22.507Z,99427.78
2023-04-02T09:47:51.807Z,99435.00
2023-04-02T09:50:32.052Z,99433.22
2023-04-02T09:53:17.119Z,99436.69
2023-04-02T09:55:50.769Z,99442.84
2023-04-02T09:58:19.169Z,99448.19
2023-04-02T10:00:55.542Z,99446.56
2023-04-02T10:03:28.756Z,99441.28
2023-04-02T10:06:15.041Z,99447.13
2023-04-02T10:08:45.954Z,99454.56
2023-04-02T10:11:18.596Z,99450.81
2023-04-02T10:14:00.987Z,99455.91
2023-04-02T10:16:35.563Z,99461.78
2023-04-02T10:19:32.722Z,99459.75
2023-04-02T10:22:04.595Z,99463.88
2023-04-02T10:24:34.165Z,99471.72
2023-04-02T10:27:18.031Z,99477.13
2023-04-02T10:30:05.752Z,99468.41
2023-04-02T10:33:21.782Z,99479.00
2023-04-02T10:36:10.731Z,99477.25
2023-04-02T10:38:46.458Z,99484.41
2023-04-02T10:41:17.358Z,99484.41
2023-04-02T10:44:18.918Z,99482.06
2023-04-02T10:47:12.742Z,99488.28
2023-04-02T10:49:56.365Z,99492.69
2023-04-02T10:52:53.524Z,99485.16
2023-04-02T10:55:30.677Z,99496.69
2023-04-02T10:58:03.868Z,99504.63
2023-04-02T11:00:41.698Z,99515.00
2023-04-02T11:03:17.243Z,99518.25
2023-04-02T11:05:52.559Z,99523.38
2023-04-02T11:08:22.687Z,99523.34
2023-04-02T11:11:03.330Z,99534.97
2023-04-02T11:13:43.410Z,99526.31
2023-04-02T11:16:15.830Z,99529.78
2023-04-02T11:18:43.403Z,99543.59
2023-04-02T11:21:51.063Z,99539.88
2023-04-02T11:24:37.474Z,99539.53
2023-04-02T11:27:10.784Z,99542.09
2023-04-02T11:29:41.094Z,99543.59
2023-04-02T11:32:36.064Z,99546.09
2023-04-02T11:35:31.780Z,99550.44
2023-04-02T11:38:20.060Z,99562.00
2023-04-02T11:40:56.006Z,99557.81
2023-04-02T11:43:34.953Z,99568.41
2023-04-02T11:46:17.371Z,99568.59
2023-04-02T11:48:45.006Z,99568.88
2023-04-02T11:51:22.866Z,99573.31
2023-04-02T11:53:58.796Z,99581.06
2023-04-02T11:56:40.342Z,99579.31
2023-04-02T11:59:58.415Z,99587.13
2023-04-02T12:02:32.387Z,99586.13
2023-04-02T12:05:05.430Z,99590.53
2023-04-02T12:08:28.845Z,99586.31
2023-04-02T12:11:00.836Z,99590.94
2023-04-02T12:13:41.157Z,99591.78
2023-04-02T12:16:12.614Z,99583.22
2023-04-02T12:18:51.616Z,99598.16
2023-04-02T12:21:21.157Z,99607.81
2023-04-02T12:23:52.159Z,99605.06
2023-04-02T12:26:37.927Z,99603.31
2023-04-02T12:29:25.207Z,99620.69
2023-04-02T12:31:55.778Z,99618.00
2023-04-02T12:34:27.938Z,99617.91
2023-04-02T12:37:04.522Z,99629.19
2023-04-02T12:39:34.998Z,99632.81
2023-04-02T12:42:03.654Z,99632.13
2023-04-02T12:44:32.478Z,99638.19
2023-04-02T12:47:00.175Z,99638.94
2023-04-02T12:49:41.907Z,99638.03
2023-04-02T12:52:15.537Z,99644.38
2023-04-02T12:54:49.969Z,99646.94
2023-04-02T12:57:40.316Z,99655.66
2023-04-02T13:00:23.401Z,99645.22
2023-04-02T13:02:59.009Z,99644.19
2023-04-02T13:05:42.318Z,99649.13
2023-04-02T13:08:41.822Z,99652.50
2023-04-02T13:11:10.880Z,99657.75
2023-04-02T13:13:41.552Z,99654.31
2023-04-02T13:16:18.151Z,99658.84
2023-04-02T13:18:48.219Z,99668.53
2023-04-02T13:21:24.240Z,99669.41
2023-04-02T13:23:51.450Z,99667.72
2023-04-02T13:26:27.471Z,99666.94
2023-04-02T13:29:22.159Z,99676.59
2023-04-02T13:31:50.736Z,99673.94
2023-04-02T13:34:18.833Z,99674.72
2023-04-02T13:36:47.018Z,99675.38
2023-04-02T13:39:14.877Z,99677.00
2023-04-02T13:41:47.985Z,99680.56
2023-04-02T13:44:21.526Z,99677.13
2023-04-02T13:46:52.136Z,99680.56
2023-04-02T13:49:20.437Z,99686.66
2023-04-02T13:52:05.533Z,99695.25
2023-04-02T13:54:42.159Z,99691.91
2023-04-02T13:57:09.968Z,99705.00
2023-04-02T13:59:37.240Z,99697.97
2023-04-02T14:02:13.717Z,99709.47
2023-04-02T14:04:50.630Z,99707.66
2023-04-02T14:07:34.143Z,99699.06
2023-04-02T14:10:26.711Z,99717.50
2023-04-02T14:13:21.348Z,99721.91
2023-04-02T14:16:07.951Z,99693.41
2023-04-02T14:18:50.744Z,99721.41
2023-04-02T14:21:54.277Z,99729.22
2023-04-02T14:24:52.293Z,99718.75
2023-04-02T14:27:19.813Z,99722.16
2023-04-02T14:29:59.920Z,99718.63
2023-04-02T14:32:56.073Z,99721.13
2023-04-02T14:35:34.204Z,99732.53
2023-04-02T14:38:10.430Z,99731.53
2023-04-02T14:40:38.215Z,99739.34
2023-04-02T14:43:12.383Z,99747.22
2023-04-02T14:46:00.998Z,99741.22
2023-04-02T14:48:54.943Z,99752.56
2023-04-02T14:51:57.381Z,99750.78
2023-04-02T14:54:36.813Z,99753.63
2023-04-02T14:57:12.439Z,99750.19
2023-04-02T15:00:01.574Z,99758.06
2023-04-02T15:02:54.056Z,99754.53
2023-04-02T15:05:41.402Z,99757.06
2023-04-02T15:08:23.629Z,99749.22
2023-04-02T15:11:08.818Z,99760.63
2023-04-02T15:13:47.183Z,99774.53
2023-04-02T15:16:19.785Z,99767.47
2023-04-02T15:18:53.291Z,99774.38
2023-04-02T15:21:25.901Z,99772.63
2023-04-02T15:24:14.591Z,99777.91
2023-04-02T15:27:25.484Z,99776.16
2023-04-02T15:30:19.286Z,99785.72
2023-04-02T15:32:50.771Z,99790.03
2023-04-02T15:35:46.118Z,99793.41
2023-04-02T15:38:50.084Z,99796.94
2023-04-02T15:41:27.908Z,99795.22
2023-04-02T15:44:15.748Z,99797.94
2023-04-02T15:47:05.450Z,99804.88
2023-04-02T15:49:33.750Z,99805.78
2023-04-02T15:52:25.438Z,99807.44
2023-04-02T15:55:19.753Z,99804.75
2023-04-02T15:58:19.472Z,99812.72
2023-04-02T16:01:18.855Z,99821.53
2023-04-02T16:04:20.285Z,99814.50
2023-04-02T16:07:08.391Z,99820.69
2023-04-02T16:09:58.482Z,99829.47
2023-04-02T16:12:34.052Z,99827.72
2023-04-02T16:15:27.363Z,99838.22
2023-04-02T16:18:03.911Z,99834.72
2023-04-02T16:21:05.246Z,99830.34
2023-04-02T16:23:39.208Z,99849.59
2023-04-02T16:26:29.990Z,99851.28
2023-04-02T16:29:09.817Z,99849.56
2023-04-02T16:31:48.192Z,99855.69
2023-04-02T16:34:43.710Z,99854.00
2023-04-02T16:37:18.231Z,99857.53
2023-04-02T16:40:04.200Z,99860.13
2023-04-02T16:43:00.676Z,99861.84
2023-04-02T16:45:39.528Z,99860.13
2023-04-02T16:48:26.326Z,99867.97
2023-04-02T16:51:03.371Z,99866.25
2023-04-02T16:54:01.481Z,99871.44
2023-04-02T16:56:49.177Z,99870.56
2023-04-02T16:59:34.211Z,99874.06
2023-04-02T17:02:23.339Z,99882.88
2023-04-02T17:04:57.352Z,99885.47
2023-04-02T17:07:50.831Z,99882.81
2023-04-02T17:10:32.491Z,99888.13
2023-04-02T17:13:26.920Z,99894.31
2023-04-02T17:16:23.235Z,99903.97
2023-04-02T17:18:59.241Z,99898.75
2023-04-02T17:21:29.831Z,99906.69
2023-04-02T17:24:31.042Z,99910.16
2023-04-02T17:27:12.178Z,99910.13
2023-04-02T17:29:45.652Z,99911.91
2023-04-02T17:32:22.386Z,99922.41
2023-04-02T17:34:50.986Z,99918.91
2023-04-02T17:37:40.093Z,99933.72
2023-04-02T17:40:33.221Z,99931.94
2023-04-02T17:43:45.461Z,99930.19
2023-04-02T17:46:50.884Z,99931.94
2023-04-02T17:49:42.268Z,99931.91
2023-04-02T17:52:35.104Z,99944.16
2023-04-02T17:55:32.022Z,99952.94
2023-04-02T17:58:28.183Z,99953.78
2023-04-02T18:01:21.602Z,99946.78
2023-04-02T18:04:07.921Z,99967.75
2023-04-02T18:06:51.016Z,99956.31
2023-04-02T18:09:40.336Z,99965.91
2023-04-02T18:12:19.648Z,99963.28
2023-04-02T18:15:06.321Z,99963.31
2023-04-02T18:18:11.165Z,99974.69
2023-04-02T18:21:18.284Z,99979.03
2023-04-02T18:24:10.213Z,99979.88
2023-04-02T18:26:52.322Z,99989.53
2023-04-02T18:29:57.996Z,99982.63
2023-04-02T18:32:57.183Z,99994.84
2023-04-02T18:35:54.401Z,99993.97
2023-04-02T18:38:43.068Z,100003.59
2023-04-02T18:41:43.278Z,100000.19
2023-04-02T18:44:41.264Z,100008.91
2023-04-02T18:47:30.898Z,100016.78
2023-04-02T18:50:36.390Z,100017.69
2023-04-02T18:53:20.275Z,100017.72
2023-04-02T18:56:10.176Z,100017.78
2023-04-02T18:59:05.702Z,100022.13
2023-04-02T19:01:47.029Z,100026.50
2023-04-02T19:04:37.124Z,100030.88
2023-04-02T19:07:19.632Z,100030.03
2023-04-02T19:09:52.736Z,100027.38
2023-04-02T19:12:26.437Z,100031.72
2023-04-02T19:14:56.815Z,100035.22
2023-04-02T19:17:36.878Z,100039.63
2023-04-02T19:20:59.359Z,100040.47
2023-04-02T19:23:30.765Z,100044.91
2023-04-02T19:26:02.508Z,100050.97
2023-04-02T19:29:11.219Z,100050.09
2023-04-02T19:32:03.758Z,100059.69
2023-04-02T19:34:58.765Z,100059.72
2023-04-02T19:37:39.753Z,100066.72
2023-04-02T19:40:14.054Z,100064.97
2023-04-02T19:43:03.085Z,100067.63
2023-04-02T19:45:43.119Z,100071.97
2023-04-02T19:48:25.964Z,100064.97
2023-04-02T19:50:55.343Z,100067.63
2023-04-02T19:53:24.210Z,100071.09
2023-04-02T19:55:55.798Z,100078.94
2023-04-02T19:58:38.830Z,100073.69
2023-04-02T20:01:07.147Z,100070.25
2023-04-02T20:03:35.708Z,100068.50
2023-04-02T20:06:06.670Z,100068.53
2023-04-02T20:08:39.971Z,100079.00
2023-04-02T20:11:08.691Z,100074.66
2023-04-02T20:13:39.285Z,100076.41
2023-04-02T20:16:08.715Z,100082.47
2023-04-02T20:18:37.950Z,100090.38
2023-04-02T20:21:07.814Z,100083.38
2023-04-02T20:23:37.294Z,100095.56
2023-04-02T20:26:08.044Z,100095.56
2023-04-02T20:28:37.278Z,100093.84
2023-04-02T20:31:19.250Z,100094.75
2023-04-02T20:33:48.310Z,100108.69
2023-04-02T20:36:17.730Z,100100.84
2023-04-02T20:38:46.775Z,100118.28
2023-04-02T20:41:16.531Z,100119.16
2023-04-02T20:43:43.899Z,100113.94
2023-04-02T20:46:13.023Z,100124.47
2023-04-02T20:48:41.127Z,100119.19
2023-04-02T20:54:14.961Z,100121.84
2023-04-02T20:56:43.511Z,100129.69
2023-04-02T20:59:11.406Z,100133.22
2023-04-02T21:01:38.959Z,100127.97
2023-04-02T21:04:07.331Z,100134.94
2023-04-02T21:06:38.552Z,100139.28
2023-04-02T21:09:11.230Z,100141.91
2023-04-02T21:11:38.908Z,100134.09
2023-04-02T21:14:06.710Z,100153.31
2023-04-02T21:16:35.228Z,100145.44
2023-04-02T21:19:07.432Z,100149.81
2023-04-02T21:21:36.114Z,100150.69
2023-04-02T21:24:06.024Z,100142.81
2023-04-02T21:26:36.233Z,100155.06
2023-04-02T21:29:04.579Z,100161.16
2023-04-02T21:31:38.126Z,100154.19
2023-04-02T21:34:08.792Z,100160.31
2023-04-02T21:36:41.062Z,100157.69
2023-04-02T21:39:17.127Z,100163.78
2023-04-02T21:41:53.521Z,100163.84
2023-04-02T21:44:23.002Z,100170.78
2023-04-02T21:46:53.584Z,100175.13
2023-04-02T21:49:22.948Z,100172.50
2023-04-02T21:51:53.844Z,100176.88
2023-04-02T21:54:21.865Z,100170.78
2023-04-02T21:56:49.693Z,100166.44
2023-04-02T21:59:18.063Z,100172.53
2023-04-02T22:01:48.922Z,100171.69
2023-04-02T22:04:19.952Z,100178.66
2023-04-02T22:06:47.330Z,100176.88
2023-04-02T22:09:20.599Z,100178.63
2023-04-02T22:11:51.126Z,100178.63
2023-04-02T22:14:19.490Z,100176.94
2023-04-02T22:16:47.809Z,100183.88
2023-04-02T22:19:16.336Z,100182.97
2023-04-02T22:21:44.410Z,100185.59
2023-04-02T22:24:15.829Z,100191.72
2023-04-02T22:26:43.197Z,100190.81
2023-04-02T22:29:12.032Z,100185.56
2023-04-02T22:31:40.351Z,100192.53
2023-04-02T22:34:09.716Z,100192.53
2023-04-02T22:36:39.265Z,100203.88
2023-04-02T22:39:10.030Z,100194.31
2023-04-02T22:41:38.705Z,100189.06
2023-04-02T22:44:06.228Z,100199.56
2023-04-02T22:46:36.261Z,100196.94
2023-04-02T22:49:03.587Z,100202.19
2023-04-02T22:51:37.420Z,100201.31
2023-04-02T22:54:11.902Z,100207.41
2023-04-02T22:56:39.376Z,100206.53
2023-04-02T22:59:06.904Z,100208.28
2023-04-02T23:01:36.271Z,100210.91
2023-04-02T23:04:05.502Z,100209.16
2023-04-02T23:06:32.804Z,100201.34
2023-04-02T23:09:02.403Z,100213.53
2023-04-02T23:11:29.742Z,100206.56
2023-04-02T23:13:58.325Z,100204.81
2023-04-02T23:16:29.002Z,100208.28
2023-04-02T23:18:58.389Z,100205.72
2023-04-02T23:21:26.704Z,100202.22
2023-04-02T23:23:54.998Z,100215.31
2023-04-02T23:26:29.706Z,100210.94
2023-04-02T23:29:00.799Z,100214.44
2023-04-02T23:31:29.839Z,100213.53
2023-04-02T23:33:57.402Z,100212.66
2023-04-02T23:36:33.200Z,100217.03
2023-04-02T23:39:11.629Z,100217.03
2023-04-02T23:41:41.222Z,100222.25
2023-04-02T23:44:09.856Z,100226.59
2023-04-02T23:46:37.451Z,100225.75
2023-04-02T23:49:04.652Z,100225.75
2023-04-02T23:51:33.107Z,100224.88
2023-04-02T23:54:00.947Z,100224.88
2023-04-02T23:56:28.529Z,100229.25
2023-04-02T23:58:57.068Z,100230.13
